sensor_id;sensor_type;location;lat;lon;timestamp;P1;durP1;ratioP1;P2;durP2;ratioP2
64615;SDS011;51027;42.162;24.754;2023-06-14T03:01:36;18.42;;;7.85;;
64615;SDS011;51027;42.162;24.754;2023-06-14T03:04:05;17.80;;;8.25;;
64615;SDS011;51027;42.162;24.754;2023-06-14T03:06:34;17.60;;;8.17;;
64615;SDS011;51027;42.162;24.754;2023-06-14T03:09:01;16.45;;;7.80;;
64615;SDS011;51027;42.162;24.754;2023-06-14T03:11:30;19.10;;;8.02;;
64615;SDS011;51027;42.162;24.754;2023-06-14T03:13:56;17.63;;;8.65;;
64615;SDS011;51027;42.162;24.754;2023-06-14T03:16:22;18.02;;;7.72;;
64615;SDS011;51027;42.162;24.754;2023-06-14T03:18:49;17.77;;;7.38;;
64615;SDS011;51027;42.162;24.754;2023-06-14T03:21:15;18.05;;;7.50;;
64615;SDS011;51027;42.162;24.754;2023-06-14T03:23:41;17.52;;;7.28;;
64615;SDS011;51027;42.162;24.754;2023-06-14T03:26:07;17.63;;;7.75;;
64615;SDS011;51027;42.162;24.754;2023-06-14T03:28:33;16.50;;;7.55;;
64615;SDS011;51027;42.162;24.754;2023-06-14T03:30:58;16.85;;;8.18;;
64615;SDS011;51027;42.162;24.754;2023-06-14T03:33:24;16.40;;;8.45;;
64615;SDS011;51027;42.162;24.754;2023-06-14T03:35:50;20.00;;;8.10;;
64615;SDS011;51027;42.162;24.754;2023-06-14T03:38:16;19.23;;;8.23;;
64615;SDS011;51027;42.162;24.754;2023-06-14T03:40:41;15.75;;;6.70;;
64615;SDS011;51027;42.162;24.754;2023-06-14T03:43:07;18.98;;;7.38;;
64615;SDS011;51027;42.162;24.754;2023-06-14T03:45:32;16.40;;;6.85;;
64615;SDS011;51027;42.162;24.754;2023-06-14T03:47:57;16.75;;;7.15;;
64615;SDS011;51027;42.162;24.754;2023-06-14T03:50:25;17.00;;;6.70;;
64615;SDS011;51027;42.162;24.754;2023-06-14T03:52:52;17.98;;;6.63;;
64615;SDS011;51027;42.162;24.754;2023-06-14T03:55:17;16.77;;;6.28;;
64615;SDS011;51027;42.162;24.754;2023-06-14T03:57:43;15.75;;;6.80;;
64615;SDS011;51027;42.162;24.754;2023-06-14T04:00:08;17.05;;;7.40;;
64615;SDS011;51027;42.162;24.754;2023-06-14T04:02:34;17.88;;;7.30;;
64615;SDS011;51027;42.162;24.754;2023-06-14T04:05:01;18.67;;;7.95;;
64615;SDS011;51027;42.162;24.754;2023-06-14T04:07:27;17.08;;;7.45;;
64615;SDS011;51027;42.162;24.754;2023-06-14T04:09:53;17.70;;;7.90;;
64615;SDS011;51027;42.162;24.754;2023-06-14T04:12:19;20.27;;;9.63;;
64615;SDS011;51027;42.162;24.754;2023-06-14T04:14:45;19.63;;;9.68;;
64615;SDS011;51027;42.162;24.754;2023-06-14T04:17:10;18.85;;;9.95;;
64615;SDS011;51027;42.162;24.754;2023-06-14T04:19:36;21.00;;;9.40;;
64615;SDS011;51027;42.162;24.754;2023-06-14T04:22:01;18.65;;;9.30;;
64615;SDS011;51027;42.162;24.754;2023-06-14T04:24:27;17.67;;;8.13;;
64615;SDS011;51027;42.162;24.754;2023-06-14T04:26:57;18.10;;;7.60;;
64615;SDS011;51027;42.162;24.754;2023-06-14T04:29:24;17.55;;;7.75;;
64615;SDS011;51027;42.162;24.754;2023-06-14T04:31:51;16.20;;;7.60;;
64615;SDS011;51027;42.162;24.754;2023-06-14T04:34:19;17.67;;;8.07;;
64615;SDS011;51027;42.162;24.754;2023-06-14T04:36:46;17.75;;;7.40;;
64615;SDS011;51027;42.162;24.754;2023-06-14T04:39:18;16.38;;;7.63;;
64615;SDS011;51027;42.162;24.754;2023-06-14T04:41:44;17.90;;;8.57;;
64615;SDS011;51027;42.162;24.754;2023-06-14T04:44:10;17.05;;;8.07;;
64615;SDS011;51027;42.162;24.754;2023-06-14T04:46:36;19.00;;;8.52;;
64615;SDS011;51027;42.162;24.754;2023-06-14T04:49:17;19.70;;;8.85;;
64615;SDS011;51027;42.162;24.754;2023-06-14T04:51:43;17.50;;;8.13;;
64615;SDS011;51027;42.162;24.754;2023-06-14T04:54:10;18.90;;;8.95;;
64615;SDS011;51027;42.162;24.754;2023-06-14T04:56:39;20.02;;;9.07;;
64615;SDS011;51027;42.162;24.754;2023-06-14T04:59:05;17.27;;;8.27;;
64615;SDS011;51027;42.162;24.754;2023-06-14T05:01:31;19.25;;;9.60;;
64615;SDS011;51027;42.162;24.754;2023-06-14T05:03:57;21.27;;;9.90;;
64615;SDS011;51027;42.162;24.754;2023-06-14T05:06:23;19.83;;;8.98;;
64615;SDS011;51027;42.162;24.754;2023-06-14T05:08:48;20.48;;;9.00;;
64615;SDS011;51027;42.162;24.754;2023-06-14T05:11:14;23.10;;;9.35;;
64615;SDS011;51027;42.162;24.754;2023-06-14T05:13:40;19.27;;;9.38;;
64615;SDS011;51027;42.162;24.754;2023-06-14T05:16:06;19.40;;;9.20;;
64615;SDS011;51027;42.162;24.754;2023-06-14T05:18:32;22.38;;;9.32;;
64615;SDS011;51027;42.162;24.754;2023-06-14T05:20:59;17.42;;;8.88;;
64615;SDS011;51027;42.162;24.754;2023-06-14T05:23:25;17.63;;;8.95;;
64615;SDS011;51027;42.162;24.754;2023-06-14T05:25:50;19.42;;;9.02;;
64615;SDS011;51027;42.162;24.754;2023-06-14T05:28:15;18.00;;;8.25;;
64615;SDS011;51027;42.162;24.754;2023-06-14T05:30:41;22.42;;;10.45;;
64615;SDS011;51027;42.162;24.754;2023-06-14T05:33:07;19.48;;;9.27;;
64615;SDS011;51027;42.162;24.754;2023-06-14T05:35:32;20.08;;;8.73;;
64615;SDS011;51027;42.162;24.754;2023-06-14T05:37:58;21.55;;;9.82;;
64615;SDS011;51027;42.162;24.754;2023-06-14T05:40:23;21.38;;;10.35;;
64615;SDS011;51027;42.162;24.754;2023-06-14T05:42:49;24.45;;;10.25;;
64615;SDS011;51027;42.162;24.754;2023-06-14T05:45:14;21.27;;;10.50;;
64615;SDS011;51027;42.162;24.754;2023-06-14T05:47:42;22.00;;;11.82;;
64615;SDS011;51027;42.162;24.754;2023-06-14T05:50:08;20.95;;;11.98;;
64615;SDS011;51027;42.162;24.754;2023-06-14T05:52:34;21.45;;;10.75;;
64615;SDS011;51027;42.162;24.754;2023-06-14T05:55:00;22.27;;;11.88;;
64615;SDS011;51027;42.162;24.754;2023-06-14T05:57:26;20.02;;;10.88;;
64615;SDS011;51027;42.162;24.754;2023-06-14T05:59:51;19.73;;;9.82;;
64615;SDS011;51027;42.162;24.754;2023-06-14T06:02:17;21.10;;;10.32;;
64615;SDS011;51027;42.162;24.754;2023-06-14T06:04:42;21.80;;;10.93;;
64615;SDS011;51027;42.162;24.754;2023-06-14T06:07:08;21.13;;;10.32;;
64615;SDS011;51027;42.162;24.754;2023-06-14T06:09:33;22.05;;;11.60;;
64615;SDS011;51027;42.162;24.754;2023-06-14T06:11:58;19.98;;;11.52;;
64615;SDS011;51027;42.162;24.754;2023-06-14T06:14:24;21.33;;;12.35;;
64615;SDS011;51027;42.162;24.754;2023-06-14T06:16:49;21.02;;;10.88;;
64615;SDS011;51027;42.162;24.754;2023-06-14T06:19:17;22.25;;;11.10;;
64615;SDS011;51027;42.162;24.754;2023-06-14T06:21:43;22.33;;;11.77;;
64615;SDS011;51027;42.162;24.754;2023-06-14T06:24:08;21.40;;;11.70;;
64615;SDS011;51027;42.162;24.754;2023-06-14T06:26:34;22.48;;;11.88;;
64615;SDS011;51027;42.162;24.754;2023-06-14T06:28:59;21.73;;;11.73;;
64615;SDS011;51027;42.162;24.754;2023-06-14T06:31:25;22.60;;;12.38;;
64615;SDS011;51027;42.162;24.754;2023-06-14T06:33:52;21.17;;;11.80;;
64615;SDS011;51027;42.162;24.754;2023-06-14T06:36:19;22.83;;;11.55;;
64615;SDS011;51027;42.162;24.754;2023-06-14T06:38:46;19.40;;;10.85;;
64615;SDS011;51027;42.162;24.754;2023-06-14T06:41:12;21.85;;;11.90;;
64615;SDS011;51027;42.162;24.754;2023-06-14T06:43:38;22.52;;;11.70;;
64615;SDS011;51027;42.162;24.754;2023-06-14T06:46:03;21.75;;;11.82;;
64615;SDS011;51027;42.162;24.754;2023-06-14T06:48:29;23.15;;;12.98;;
64615;SDS011;51027;42.162;24.754;2023-06-14T06:50:54;21.35;;;12.63;;
64615;SDS011;51027;42.162;24.754;2023-06-14T06:53:20;23.27;;;12.00;;
64615;SDS011;51027;42.162;24.754;2023-06-14T06:55:45;25.17;;;12.32;;
64615;SDS011;51027;42.162;24.754;2023-06-14T06:58:11;21.40;;;12.05;;
64615;SDS011;51027;42.162;24.754;2023-06-14T07:00:37;23.17;;;13.07;;
64615;SDS011;51027;42.162;24.754;2023-06-14T07:03:02;23.45;;;12.35;;
64615;SDS011;51027;42.162;24.754;2023-06-14T07:05:28;24.42;;;12.52;;
64615;SDS011;51027;42.162;24.754;2023-06-14T07:07:54;22.48;;;13.23;;
64615;SDS011;51027;42.162;24.754;2023-06-14T07:10:19;23.40;;;12.57;;
64615;SDS011;51027;42.162;24.754;2023-06-14T07:12:45;21.52;;;12.18;;
64615;SDS011;51027;42.162;24.754;2023-06-14T07:15:11;21.60;;;12.30;;
64615;SDS011;51027;42.162;24.754;2023-06-14T07:17:37;22.90;;;12.27;;
64615;SDS011;51027;42.162;24.754;2023-06-14T07:20:03;23.48;;;11.93;;
64615;SDS011;51027;42.162;24.754;2023-06-14T07:22:32;21.58;;;12.32;;
64615;SDS011;51027;42.162;24.754;2023-06-14T07:24:58;22.42;;;12.70;;
64615;SDS011;51027;42.162;24.754;2023-06-14T07:27:23;22.05;;;11.30;;
64615;SDS011;51027;42.162;24.754;2023-06-14T07:29:48;23.58;;;11.23;;
64615;SDS011;51027;42.162;24.754;2023-06-14T07:32:14;21.33;;;11.63;;
64615;SDS011;51027;42.162;24.754;2023-06-14T07:34:39;21.77;;;11.55;;
64615;SDS011;51027;42.162;24.754;2023-06-14T07:37:04;21.15;;;11.48;;
64615;SDS011;51027;42.162;24.754;2023-06-14T07:39:30;19.25;;;10.90;;
64615;SDS011;51027;42.162;24.754;2023-06-14T07:41:56;18.92;;;10.45;;
64615;SDS011;51027;42.162;24.754;2023-06-14T07:44:24;19.48;;;10.52;;
64615;SDS011;51027;42.162;24.754;2023-06-14T07:46:50;18.20;;;10.10;;
64615;SDS011;51027;42.162;24.754;2023-06-14T07:49:15;18.80;;;9.88;;
64615;SDS011;51027;42.162;24.754;2023-06-14T07:51:41;19.88;;;10.13;;
64615;SDS011;51027;42.162;24.754;2023-06-14T07:54:08;18.77;;;10.10;;
64615;SDS011;51027;42.162;24.754;2023-06-14T07:56:33;21.45;;;9.80;;
64615;SDS011;51027;42.162;24.754;2023-06-14T07:58:59;21.55;;;10.73;;
64615;SDS011;51027;42.162;24.754;2023-06-14T08:01:24;18.98;;;11.60;;
64615;SDS011;51027;42.162;24.754;2023-06-14T08:03:50;18.92;;;10.73;;
64615;SDS011;51027;42.162;24.754;2023-06-14T08:06:16;22.15;;;11.60;;
64615;SDS011;51027;42.162;24.754;2023-06-14T08:08:41;19.67;;;10.30;;
64615;SDS011;51027;42.162;24.754;2023-06-14T08:11:07;18.70;;;11.13;;
64615;SDS011;51027;42.162;24.754;2023-06-14T08:13:32;20.80;;;10.85;;
64615;SDS011;51027;42.162;24.754;2023-06-14T08:15:58;22.95;;;12.15;;
64615;SDS011;51027;42.162;24.754;2023-06-14T08:18:23;21.98;;;12.43;;
64615;SDS011;51027;42.162;24.754;2023-06-14T08:20:49;21.83;;;12.23;;
64615;SDS011;51027;42.162;24.754;2023-06-14T08:23:15;20.55;;;12.30;;
64615;SDS011;51027;42.162;24.754;2023-06-14T08:25:44;22.08;;;10.93;;
64615;SDS011;51027;42.162;24.754;2023-06-14T08:28:10;19.85;;;11.57;;
64615;SDS011;51027;42.162;24.754;2023-06-14T08:30:35;20.50;;;12.27;;
64615;SDS011;51027;42.162;24.754;2023-06-14T08:33:01;22.25;;;13.10;;
64615;SDS011;51027;42.162;24.754;2023-06-14T08:35:26;20.52;;;12.95;;
64615;SDS011;51027;42.162;24.754;2023-06-14T08:37:52;21.08;;;13.05;;
64615;SDS011;51027;42.162;24.754;2023-06-14T08:42:45;20.90;;;13.20;;
64615;SDS011;51027;42.162;24.754;2023-06-14T08:45:21;19.98;;;11.98;;
64615;SDS011;51027;42.162;24.754;2023-06-14T08:47:48;19.75;;;12.10;;
64615;SDS011;51027;42.162;24.754;2023-06-14T08:52:46;20.45;;;12.27;;
64615;SDS011;51027;42.162;24.754;2023-06-14T08:55:18;22.17;;;12.30;;
64615;SDS011;51027;42.162;24.754;2023-06-14T08:57:45;21.10;;;12.02;;
64615;SDS011;51027;42.162;24.754;2023-06-14T09:00:11;21.83;;;12.15;;
64615;SDS011;51027;42.162;24.754;2023-06-14T09:02:39;20.05;;;11.65;;
64615;SDS011;51027;42.162;24.754;2023-06-14T09:05:09;19.65;;;10.85;;
64615;SDS011;51027;42.162;24.754;2023-06-14T09:07:36;18.88;;;11.13;;
64615;SDS011;51027;42.162;24.754;2023-06-14T09:10:10;20.67;;;11.52;;
64615;SDS011;51027;42.162;24.754;2023-06-14T09:12:37;19.27;;;11.70;;
64615;SDS011;51027;42.162;24.754;2023-06-14T09:15:03;19.42;;;11.48;;
64615;SDS011;51027;42.162;24.754;2023-06-14T09:17:40;18.30;;;11.63;;
64615;SDS011;51027;42.162;24.754;2023-06-14T09:20:07;18.83;;;11.57;;
64615;SDS011;51027;42.162;24.754;2023-06-14T09:22:38;19.95;;;12.13;;
64615;SDS011;51027;42.162;24.754;2023-06-14T09:25:04;20.25;;;12.80;;
64615;SDS011;51027;42.162;24.754;2023-06-14T09:27:30;18.92;;;11.68;;
64615;SDS011;51027;42.162;24.754;2023-06-14T09:29:56;18.42;;;11.50;;
64615;SDS011;51027;42.162;24.754;2023-06-14T09:32:21;20.45;;;12.55;;
64615;SDS011;51027;42.162;24.754;2023-06-14T09:34:47;21.35;;;11.48;;
64615;SDS011;51027;42.162;24.754;2023-06-14T09:37:13;19.63;;;12.20;;
64615;SDS011;51027;42.162;24.754;2023-06-14T09:39:51;18.83;;;11.00;;
64615;SDS011;51027;42.162;24.754;2023-06-14T09:42:17;18.75;;;11.50;;
64615;SDS011;51027;42.162;24.754;2023-06-14T09:44:45;18.38;;;11.60;;
64615;SDS011;51027;42.162;24.754;2023-06-14T09:47:13;20.10;;;12.52;;
64615;SDS011;51027;42.162;24.754;2023-06-14T09:49:40;20.35;;;13.02;;
64615;SDS011;51027;42.162;24.754;2023-06-14T09:52:06;19.95;;;11.73;;
64615;SDS011;51027;42.162;24.754;2023-06-14T09:54:33;20.05;;;11.57;;
64615;SDS011;51027;42.162;24.754;2023-06-14T09:57:05;20.98;;;12.48;;
64615;SDS011;51027;42.162;24.754;2023-06-14T09:59:33;20.95;;;12.32;;
64615;SDS011;51027;42.162;24.754;2023-06-14T10:02:00;19.08;;;11.27;;
64615;SDS011;51027;42.162;24.754;2023-06-14T10:04:33;18.98;;;11.93;;
64615;SDS011;51027;42.162;24.754;2023-06-14T10:06:59;19.95;;;12.63;;
64615;SDS011;51027;42.162;24.754;2023-06-14T10:09:26;21.00;;;12.48;;
64615;SDS011;51027;42.162;24.754;2023-06-14T10:11:52;20.02;;;12.30;;
64615;SDS011;51027;42.162;24.754;2023-06-14T10:14:17;21.75;;;12.32;;
64615;SDS011;51027;42.162;24.754;2023-06-14T10:19:28;19.38;;;12.25;;
64615;SDS011;51027;42.162;24.754;2023-06-14T10:24:29;21.17;;;12.65;;
64615;SDS011;51027;42.162;24.754;2023-06-14T10:26:58;20.67;;;12.13;;
64615;SDS011;51027;42.162;24.754;2023-06-14T10:29:26;21.85;;;13.52;;
64615;SDS011;51027;42.162;24.754;2023-06-14T10:31:57;20.13;;;13.27;;
64615;SDS011;51027;42.162;24.754;2023-06-14T10:34:24;20.02;;;12.88;;
64615;SDS011;51027;42.162;24.754;2023-06-14T10:37:03;21.73;;;13.75;;
64615;SDS011;51027;42.162;24.754;2023-06-14T10:39:32;19.98;;;13.02;;
64615;SDS011;51027;42.162;24.754;2023-06-14T10:42:01;21.73;;;14.10;;
64615;SDS011;51027;42.162;24.754;2023-06-14T10:46:55;22.10;;;13.68;;
64615;SDS011;51027;42.162;24.754;2023-06-14T10:49:42;23.20;;;13.02;;
64615;SDS011;51027;42.162;24.754;2023-06-14T10:52:10;20.95;;;14.05;;
64615;SDS011;51027;42.162;24.754;2023-06-14T10:57:31;21.13;;;13.38;;
64615;SDS011;51027;42.162;24.754;2023-06-14T10:59:59;23.07;;;13.57;;
64615;SDS011;51027;42.162;24.754;2023-06-14T11:04:59;21.63;;;14.05;;
64615;SDS011;51027;42.162;24.754;2023-06-14T11:10:37;19.55;;;13.18;;
64615;SDS011;51027;42.162;24.754;2023-06-14T11:13:04;22.13;;;13.27;;
64615;SDS011;51027;42.162;24.754;2023-06-14T11:15:30;20.85;;;13.50;;
64615;SDS011;51027;42.162;24.754;2023-06-14T11:17:57;20.83;;;13.02;;
64615;SDS011;51027;42.162;24.754;2023-06-14T11:20:26;21.77;;;13.23;;
64615;SDS011;51027;42.162;24.754;2023-06-14T11:22:53;22.60;;;13.18;;
64615;SDS011;51027;42.162;24.754;2023-06-14T11:25:19;24.08;;;15.75;;
64615;SDS011;51027;42.162;24.754;2023-06-14T11:27:45;20.42;;;13.05;;
64615;SDS011;51027;42.162;24.754;2023-06-14T11:30:10;19.48;;;12.75;;
64615;SDS011;51027;42.162;24.754;2023-06-14T11:32:39;21.88;;;12.52;;
64615;SDS011;51027;42.162;24.754;2023-06-14T11:35:06;21.95;;;13.55;;
64615;SDS011;51027;42.162;24.754;2023-06-14T11:37:32;19.17;;;12.65;;
64615;SDS011;51027;42.162;24.754;2023-06-14T11:40:02;21.13;;;12.85;;
64615;SDS011;51027;42.162;24.754;2023-06-14T11:42:31;19.73;;;13.02;;
64615;SDS011;51027;42.162;24.754;2023-06-14T11:44:56;21.60;;;13.60;;
64615;SDS011;51027;42.162;24.754;2023-06-14T11:47:22;20.45;;;12.57;;
64615;SDS011;51027;42.162;24.754;2023-06-14T11:49:48;20.25;;;12.40;;
64615;SDS011;51027;42.162;24.754;2023-06-14T11:52:14;20.13;;;11.98;;
64615;SDS011;51027;42.162;24.754;2023-06-14T11:54:43;18.83;;;12.30;;
64615;SDS011;51027;42.162;24.754;2023-06-14T11:57:09;20.70;;;13.45;;
64615;SDS011;51027;42.162;24.754;2023-06-14T11:59:38;21.70;;;13.88;;
64615;SDS011;51027;42.162;24.754;2023-06-14T12:02:05;24.38;;;13.65;;
64615;SDS011;51027;42.162;24.754;2023-06-14T12:04:32;20.55;;;13.52;;
64615;SDS011;51027;42.162;24.754;2023-06-14T12:07:08;20.35;;;12.95;;
64615;SDS011;51027;42.162;24.754;2023-06-14T12:09:42;19.88;;;13.50;;
64615;SDS011;51027;42.162;24.754;2023-06-14T12:12:35;21.63;;;13.77;;
64615;SDS011;51027;42.162;24.754;2023-06-14T12:15:04;20.95;;;12.88;;
64615;SDS011;51027;42.162;24.754;2023-06-14T12:17:37;20.10;;;12.77;;
64615;SDS011;51027;42.162;24.754;2023-06-14T12:20:09;22.95;;;16.45;;
64615;SDS011;51027;42.162;24.754;2023-06-14T12:22:36;20.75;;;14.65;;
64615;SDS011;51027;42.162;24.754;2023-06-14T12:25:04;21.30;;;14.43;;
64615;SDS011;51027;42.162;24.754;2023-06-14T12:27:30;21.10;;;13.95;;
64615;SDS011;51027;42.162;24.754;2023-06-14T12:30:02;22.15;;;15.20;;
64615;SDS011;51027;42.162;24.754;2023-06-14T12:32:28;22.27;;;14.93;;
64615;SDS011;51027;42.162;24.754;2023-06-14T12:34:54;21.85;;;14.60;;
64615;SDS011;51027;42.162;24.754;2023-06-14T12:37:20;21.08;;;14.95;;
64615;SDS011;51027;42.162;24.754;2023-06-14T12:39:45;21.25;;;14.50;;
64615;SDS011;51027;42.162;24.754;2023-06-14T12:42:11;20.40;;;13.60;;
64615;SDS011;51027;42.162;24.754;2023-06-14T12:44:38;21.40;;;14.43;;
64615;SDS011;51027;42.162;24.754;2023-06-14T12:47:06;20.95;;;13.70;;
64615;SDS011;51027;42.162;24.754;2023-06-14T12:49:32;20.60;;;13.05;;
64615;SDS011;51027;42.162;24.754;2023-06-14T12:51:58;20.60;;;13.32;;
64615;SDS011;51027;42.162;24.754;2023-06-14T12:54:23;20.70;;;14.07;;
64615;SDS011;51027;42.162;24.754;2023-06-14T12:56:51;21.35;;;14.55;;
64615;SDS011;51027;42.162;24.754;2023-06-14T12:59:17;22.20;;;14.15;;
64615;SDS011;51027;42.162;24.754;2023-06-14T13:01:43;23.02;;;14.70;;
64615;SDS011;51027;42.162;24.754;2023-06-14T13:04:09;22.73;;;15.10;;
64615;SDS011;51027;42.162;24.754;2023-06-14T13:06:35;22.05;;;13.80;;
64615;SDS011;51027;42.162;24.754;2023-06-14T13:09:00;20.80;;;13.63;;
64615;SDS011;51027;42.162;24.754;2023-06-14T13:11:26;21.73;;;15.10;;
64615;SDS011;51027;42.162;24.754;2023-06-14T13:13:52;22.90;;;14.48;;
64615;SDS011;51027;42.162;24.754;2023-06-14T13:16:17;20.58;;;12.85;;
64615;SDS011;51027;42.162;24.754;2023-06-14T13:18:43;20.52;;;12.45;;
64615;SDS011;51027;42.162;24.754;2023-06-14T13:21:08;20.60;;;12.48;;
64615;SDS011;51027;42.162;24.754;2023-06-14T13:23:34;21.15;;;12.80;;
64615;SDS011;51027;42.162;24.754;2023-06-14T13:25:59;21.40;;;14.52;;
64615;SDS011;51027;42.162;24.754;2023-06-14T13:28:24;21.50;;;12.68;;
64615;SDS011;51027;42.162;24.754;2023-06-14T13:30:51;23.15;;;14.93;;
64615;SDS011;51027;42.162;24.754;2023-06-14T13:33:16;21.00;;;13.45;;
64615;SDS011;51027;42.162;24.754;2023-06-14T13:35:42;21.95;;;14.27;;
64615;SDS011;51027;42.162;24.754;2023-06-14T13:38:08;22.58;;;13.20;;
64615;SDS011;51027;42.162;24.754;2023-06-14T13:40:34;21.23;;;13.65;;
64615;SDS011;51027;42.162;24.754;2023-06-14T13:43:00;21.15;;;13.32;;
64615;SDS011;51027;42.162;24.754;2023-06-14T13:45:25;21.17;;;13.60;;
64615;SDS011;51027;42.162;24.754;2023-06-14T13:47:51;21.88;;;13.48;;
64615;SDS011;51027;42.162;24.754;2023-06-14T13:50:22;20.45;;;12.73;;
64615;SDS011;51027;42.162;24.754;2023-06-14T13:52:47;20.60;;;12.43;;
64615;SDS011;51027;42.162;24.754;2023-06-14T13:55:13;21.63;;;12.88;;
64615;SDS011;51027;42.162;24.754;2023-06-14T13:57:39;20.73;;;13.32;;
64615;SDS011;51027;42.162;24.754;2023-06-14T14:00:04;20.52;;;13.10;;
64615;SDS011;51027;42.162;24.754;2023-06-14T14:02:30;22.42;;;13.00;;
64615;SDS011;51027;42.162;24.754;2023-06-14T14:04:56;23.98;;;12.85;;
64615;SDS011;51027;42.162;24.754;2023-06-14T14:07:22;22.42;;;12.85;;
64615;SDS011;51027;42.162;24.754;2023-06-14T14:09:48;28.80;;;11.43;;
64615;SDS011;51027;42.162;24.754;2023-06-14T14:12:14;18.65;;;10.15;;
64615;SDS011;51027;42.162;24.754;2023-06-14T14:14:39;18.95;;;10.70;;
64615;SDS011;51027;42.162;24.754;2023-06-14T14:17:05;18.15;;;10.55;;
64615;SDS011;51027;42.162;24.754;2023-06-14T14:19:31;17.80;;;10.40;;
64615;SDS011;51027;42.162;24.754;2023-06-14T14:21:57;17.45;;;10.02;;
64615;SDS011;51027;42.162;24.754;2023-06-14T14:24:22;20.33;;;11.35;;
64615;SDS011;51027;42.162;24.754;2023-06-14T14:26:48;17.50;;;9.18;;
64615;SDS011;51027;42.162;24.754;2023-06-14T14:29:15;17.80;;;8.48;;
64615;SDS011;51027;42.162;24.754;2023-06-14T14:31:40;16.83;;;7.97;;
64615;SDS011;51027;42.162;24.754;2023-06-14T14:34:06;16.42;;;8.43;;
64615;SDS011;51027;42.162;24.754;2023-06-14T14:36:32;19.33;;;8.57;;
64615;SDS011;51027;42.162;24.754;2023-06-14T14:39:02;15.43;;;7.03;;
64615;SDS011;51027;42.162;24.754;2023-06-14T14:41:32;14.95;;;7.95;;
64615;SDS011;51027;42.162;24.754;2023-06-14T14:43:57;16.50;;;8.07;;
64615;SDS011;51027;42.162;24.754;2023-06-14T14:46:23;15.55;;;7.50;;
64615;SDS011;51027;42.162;24.754;2023-06-14T14:48:49;15.15;;;7.13;;
64615;SDS011;51027;42.162;24.754;2023-06-14T14:51:14;16.40;;;7.03;;
64615;SDS011;51027;42.162;24.754;2023-06-14T14:53:40;17.00;;;7.88;;
64615;SDS011;51027;42.162;24.754;2023-06-14T14:56:05;16.50;;;6.70;;
64615;SDS011;51027;42.162;24.754;2023-06-14T14:58:31;15.98;;;6.72;;
64615;SDS011;51027;42.162;24.754;2023-06-14T15:00:56;13.73;;;6.50;;
64615;SDS011;51027;42.162;24.754;2023-06-14T15:03:22;15.07;;;6.50;;
64615;SDS011;51027;42.162;24.754;2023-06-14T15:05:47;16.80;;;6.68;;
64615;SDS011;51027;42.162;24.754;2023-06-14T15:08:13;15.13;;;6.43;;
64615;SDS011;51027;42.162;24.754;2023-06-14T15:10:38;14.73;;;6.05;;
64615;SDS011;51027;42.162;24.754;2023-06-14T15:13:06;14.80;;;6.80;;
64615;SDS011;51027;42.162;24.754;2023-06-14T15:15:35;14.40;;;6.00;;
64615;SDS011;51027;42.162;24.754;2023-06-14T15:18:01;14.93;;;6.82;;
64615;SDS011;51027;42.162;24.754;2023-06-14T15:20:27;16.98;;;8.32;;
64615;SDS011;51027;42.162;24.754;2023-06-14T15:22:53;15.50;;;6.47;;
64615;SDS011;51027;42.162;24.754;2023-06-14T15:25:28;14.18;;;6.45;;
64615;SDS011;51027;42.162;24.754;2023-06-14T15:27:54;14.68;;;6.22;;
64615;SDS011;51027;42.162;24.754;2023-06-14T15:30:20;14.77;;;7.22;;
64615;SDS011;51027;42.162;24.754;2023-06-14T15:32:45;13.95;;;5.75;;
64615;SDS011;51027;42.162;24.754;2023-06-14T15:35:11;15.20;;;6.72;;
64615;SDS011;51027;42.162;24.754;2023-06-14T15:37:39;14.75;;;6.70;;
64615;SDS011;51027;42.162;24.754;2023-06-14T15:40:05;15.15;;;6.32;;
64615;SDS011;51027;42.162;24.754;2023-06-14T15:42:31;14.57;;;7.03;;
64615;SDS011;51027;42.162;24.754;2023-06-14T15:44:57;16.40;;;6.97;;
64615;SDS011;51027;42.162;24.754;2023-06-14T15:47:22;15.27;;;7.30;;
64615;SDS011;51027;42.162;24.754;2023-06-14T15:49:48;16.13;;;7.53;;
64615;SDS011;51027;42.162;24.754;2023-06-14T15:52:13;17.50;;;7.55;;
64615;SDS011;51027;42.162;24.754;2023-06-14T15:54:39;15.68;;;7.47;;
64615;SDS011;51027;42.162;24.754;2023-06-14T15:57:04;15.20;;;7.18;;
64615;SDS011;51027;42.162;24.754;2023-06-14T15:59:30;21.13;;;7.72;;
64615;SDS011;51027;42.162;24.754;2023-06-14T16:01:56;15.15;;;6.97;;
64615;SDS011;51027;42.162;24.754;2023-06-14T16:04:21;16.50;;;7.05;;
64615;SDS011;51027;42.162;24.754;2023-06-14T16:06:46;14.90;;;6.57;;
64615;SDS011;51027;42.162;24.754;2023-06-14T16:09:12;14.60;;;6.63;;
64615;SDS011;51027;42.162;24.754;2023-06-14T16:11:37;16.20;;;6.78;;
64615;SDS011;51027;42.162;24.754;2023-06-14T16:14:02;14.25;;;6.53;;
64615;SDS011;51027;42.162;24.754;2023-06-14T16:16:29;15.00;;;6.97;;
64615;SDS011;51027;42.162;24.754;2023-06-14T16:18:54;16.23;;;6.70;;
64615;SDS011;51027;42.162;24.754;2023-06-14T16:21:20;14.43;;;6.72;;
64615;SDS011;51027;42.162;24.754;2023-06-14T16:23:45;14.57;;;6.50;;
64615;SDS011;51027;42.162;24.754;2023-06-14T16:26:11;14.95;;;6.10;;
64615;SDS011;51027;42.162;24.754;2023-06-14T16:28:37;14.10;;;6.28;;
64615;SDS011;51027;42.162;24.754;2023-06-14T16:31:07;14.27;;;6.00;;
64615;SDS011;51027;42.162;24.754;2023-06-14T16:33:37;15.20;;;6.15;;
64615;SDS011;51027;42.162;24.754;2023-06-14T16:36:03;14.00;;;6.13;;
64615;SDS011;51027;42.162;24.754;2023-06-14T16:38:29;15.57;;;6.38;;
64615;SDS011;51027;42.162;24.754;2023-06-14T16:40:54;13.68;;;5.78;;
64615;SDS011;51027;42.162;24.754;2023-06-14T16:43:19;12.88;;;5.60;;
64615;SDS011;51027;42.162;24.754;2023-06-14T16:45:45;12.88;;;5.70;;
64615;SDS011;51027;42.162;24.754;2023-06-14T16:48:10;16.55;;;6.63;;
64615;SDS011;51027;42.162;24.754;2023-06-14T16:50:36;15.07;;;6.20;;
64615;SDS011;51027;42.162;24.754;2023-06-14T16:53:01;13.85;;;6.20;;
64615;SDS011;51027;42.162;24.754;2023-06-14T16:55:27;14.00;;;5.70;;
64615;SDS011;51027;42.162;24.754;2023-06-14T16:57:52;14.27;;;6.40;;
64615;SDS011;51027;42.162;24.754;2023-06-14T17:00:18;17.60;;;6.60;;
64615;SDS011;51027;42.162;24.754;2023-06-14T17:02:43;15.27;;;6.20;;
64615;SDS011;51027;42.162;24.754;2023-06-14T17:05:10;14.65;;;5.82;;
64615;SDS011;51027;42.162;24.754;2023-06-14T17:07:36;17.92;;;7.90;;
64615;SDS011;51027;42.162;24.754;2023-06-14T17:10:01;14.43;;;5.95;;
64615;SDS011;51027;42.162;24.754;2023-06-14T17:12:27;14.13;;;6.13;;
64615;SDS011;51027;42.162;24.754;2023-06-14T17:14:52;16.67;;;6.75;;
64615;SDS011;51027;42.162;24.754;2023-06-14T17:17:18;14.95;;;6.30;;
64615;SDS011;51027;42.162;24.754;2023-06-14T17:19:44;16.48;;;6.50;;
64615;SDS011;51027;42.162;24.754;2023-06-14T17:22:09;14.98;;;5.78;;
64615;SDS011;51027;42.162;24.754;2023-06-14T17:24:35;14.02;;;5.90;;
64615;SDS011;51027;42.162;24.754;2023-06-14T17:27:01;16.50;;;7.88;;
64615;SDS011;51027;42.162;24.754;2023-06-14T17:29:26;14.20;;;5.97;;
64615;SDS011;51027;42.162;24.754;2023-06-14T17:31:52;15.40;;;6.40;;